Time;durP1;ratioP1;P1;durP2;ratioP2;P2;SDS_P1;SDS_P2;PMS_P1;PMS_P2;Temp;Humidity;BMP_temperature;BMP_pressure;BME280_temperature;BME280_humidity;BME280_pressure;Samples;Min_cycle;Max_cycle;Signal;HPM_P1;HPM_P2
2022/12/12 00:00:57;;;;;;;0.30;0.30;;;;;;;;;;5084321;28;20267;-73
2022/12/12 00:03:23;;;;;;;0.30;0.30;;;;;;;;;;5084388;28;20205;-72
2022/12/12 00:05:53;;;;;;;0.30;0.30;;;;;;;;;;5084209;28;20203;-72
2022/12/12 00:08:19;;;;;;;0.30;0.30;;;;;;;;;;5084230;28;20255;-72
2022/12/12 00:10:45;;;;;;;0.30;0.30;;;;;;;;;;5084472;28;20210;-73
2022/12/12 00:13:13;;;;;;;0.30;0.30;;;;;;;;;;5084410;28;20279;-72
2022/12/12 00:15:40;;;;;;;0.30;0.30;;;;;;;;;;5084118;28;20234;-72
2022/12/12 00:18:06;;;;;;;0.30;0.30;;;;;;;;;;5084364;28;20204;-72
2022/12/12 00:20:33;;;;;;;0.30;0.30;;;;;;;;;;5084208;28;20235;-72
2022/12/12 00:22:59;;;;;;;0.30;0.30;;;;;;;;;;5084646;28;20219;-72
2022/12/12 00:25:25;;;;;;;0.30;0.30;;;;;;;;;;5084239;28;20270;-72
2022/12/12 00:27:52;;;;;;;0.33;0.33;;;;;;;;;;5084116;28;20291;-72
2022/12/12 00:30:19;;;;;;;0.30;0.30;;;;;;;;;;5084204;28;20332;-72
2022/12/12 00:32:46;;;;;;;0.30;0.30;;;;;;;;;;5084090;28;20502;-72
2022/12/12 00:35:12;;;;;;;0.30;0.30;;;;;;;;;;5084142;28;20472;-72
2022/12/12 00:37:38;;;;;;;0.30;0.30;;;;;;;;;;5083984;28;20202;-72
2022/12/12 00:40:06;;;;;;;0.30;0.30;;;;;;;;;;5083819;28;20234;-72
2022/12/12 00:42:32;;;;;;;0.30;0.30;;;;;;;;;;5083759;28;20207;-72
2022/12/12 00:44:58;;;;;;;0.40;0.40;;;;;;;;;;5085181;28;20518;-71
2022/12/12 00:47:26;;;;;;;0.30;0.30;;;;;;;;;;5083971;28;20230;-72
2022/12/12 00:49:52;;;;;;;3.90;2.00;;;;;;;;;;5083964;28;20241;-72
2022/12/12 00:52:19;;;;;;;0.30;0.30;;;;;;;;;;5083650;28;20234;-72
2022/12/12 00:54:45;;;;;;;0.30;0.30;;;;;;;;;;5083441;28;20246;-72
2022/12/12 00:57:12;;;;;;;0.30;0.30;;;;;;;;;;5083928;28;20253;-72
2022/12/12 00:59:38;;;;;;;0.40;0.40;;;;;;;;;;5084075;28;20211;-72
2022/12/12 01:02:04;;;;;;;0.30;0.30;;;;;;;;;;5083905;28;20203;-72
2022/12/12 01:04:32;;;;;;;0.30;0.30;;;;;;;;;;5083964;28;20454;-72
2022/12/12 01:06:58;;;;;;;0.30;0.30;;;;;;;;;;5083706;28;20275;-72
2022/12/12 01:09:25;;;;;;;0.30;0.30;;;;;;;;;;5083843;28;20206;-72
2022/12/12 01:11:51;;;;;;;0.33;0.33;;;;;;;;;;5083733;28;20213;-72
2022/12/12 01:14:18;;;;;;;0.30;0.30;;;;;;;;;;5083805;28;20203;-72
2022/12/12 01:16:44;;;;;;;14.03;5.10;;;;;;;;;;5083714;28;20222;-71
2022/12/12 01:19:10;;;;;;;0.30;0.30;;;;;;;;;;5083748;28;20234;-71
2022/12/12 01:21:38;;;;;;;0.30;0.30;;;;;;;;;;5083303;28;20223;-71
2022/12/12 01:24:05;;;;;;;0.30;0.30;;;;;;;;;;5083737;28;20274;-71
2022/12/12 01:26:31;;;;;;;0.30;0.30;;;;;;;;;;5082940;28;20462;-71
2022/12/12 01:28:57;;;;;;;0.30;0.30;;;;;;;;;;5083656;28;20203;-71
2022/12/12 01:31:24;;;;;;;0.30;0.30;;;;;;;;;;5083259;28;20203;-71
2022/12/12 01:33:51;;;;;;;0.30;0.30;;;;;;;;;;5083247;28;20400;-71
2022/12/12 01:36:18;;;;;;;0.30;0.30;;;;;;;;;;5083497;28;20271;-71
2022/12/12 01:38:46;;;;;;;0.30;0.30;;;;;;;;;;5083544;28;20239;-71
2022/12/12 01:41:13;;;;;;;0.30;0.30;;;;;;;;;;5083243;28;20211;-71
2022/12/12 01:43:40;;;;;;;0.43;0.43;;;;;;;;;;5083491;28;20443;-71
2022/12/12 01:46:24;;;;;;;0.30;0.30;;;;;;;;;;5083031;28;20203;-71
2022/12/12 01:48:53;;;;;;;0.30;0.30;;;;;;;;;;5083422;28;20255;-71
2022/12/12 01:51:23;;;;;;;0.30;0.30;;;;;;;;;;5083082;28;20275;-71
2022/12/12 01:53:54;;;;;;;0.30;0.30;;;;;;;;;;5083203;28;20283;-71
2022/12/12 01:56:21;;;;;;;0.30;0.30;;;;;;;;;;5083387;28;20483;-71
2022/12/12 01:58:48;;;;;;;0.40;0.40;;;;;;;;;;5083144;28;20208;-71
2022/12/12 02:01:15;;;;;;;0.30;0.30;;;;;;;;;;5084309;28;20506;-71
2022/12/12 02:03:42;;;;;;;0.30;0.30;;;;;;;;;;5086921;28;20204;-71
2022/12/12 02:06:10;;;;;;;0.30;0.30;;;;;;;;;;5086596;28;20230;-71
2022/12/12 02:08:37;;;;;;;0.30;0.30;;;;;;;;;;5086606;28;20262;-71
2022/12/12 02:11:05;;;;;;;0.30;0.30;;;;;;;;;;5086479;28;20242;-71
2022/12/12 02:13:32;;;;;;;0.30;0.30;;;;;;;;;;5086556;28;20495;-71
2022/12/12 02:16:04;;;;;;;0.30;0.30;;;;;;;;;;5086361;28;20210;-71
2022/12/12 02:18:34;;;;;;;4.67;4.33;;;;;;;;;;5086780;28;20381;-71
2022/12/12 02:21:07;;;;;;;0.40;0.40;;;;;;;;;;5086309;28;20290;-71
2022/12/12 02:23:54;;;;;;;0.30;0.30;;;;;;;;;;5086323;28;20230;-71
2022/12/12 02:26:30;;;;;;;0.50;0.50;;;;;;;;;;5060683;28;20203;-71
2022/12/12 02:29:12;;;;;;;0.63;0.63;;;;;;;;;;5086534;28;20254;-71
2022/12/12 02:31:43;;;;;;;0.30;0.30;;;;;;;;;;5083758;28;20210;-71
2022/12/12 02:34:13;;;;;;;0.30;0.30;;;;;;;;;;5086456;28;20253;-71
2022/12/12 02:36:43;;;;;;;0.40;0.40;;;;;;;;;;5086258;28;20497;-72
2022/12/12 02:45:34;;;;;;;0.30;0.30;;;;;;;;;;5086043;28;20526;-71
2022/12/12 02:48:07;;;;;;;0.30;0.30;;;;;;;;;;5085863;28;20211;-71
2022/12/12 02:53:36;;;;;;;0.30;0.30;;;;;;;;;;5085622;28;20221;-71
2022/12/12 02:56:04;;;;;;;0.30;0.30;;;;;;;;;;5085619;28;20203;-72
2022/12/12 02:58:31;;;;;;;0.40;0.40;;;;;;;;;;5085737;28;20200;-71
2022/12/12 03:01:10;;;;;;;0.30;0.30;;;;;;;;;;5085520;28;20249;-71
2022/12/12 03:09:19;;;;;;;0.40;0.40;;;;;;;;;;5085743;28;20229;-71
2022/12/12 03:11:52;;;;;;;0.30;0.30;;;;;;;;;;5085333;28;20198;-71
2022/12/12 03:14:22;;;;;;;0.30;0.30;;;;;;;;;;5085290;28;20513;-71
2022/12/12 03:16:51;;;;;;;0.30;0.30;;;;;;;;;;5085584;28;20219;-71
2022/12/12 03:19:22;;;;;;;0.30;0.30;;;;;;;;;;5085615;28;20239;-71
2022/12/12 03:21:49;;;;;;;0.30;0.30;;;;;;;;;;5085438;28;20479;-71
2022/12/12 03:24:20;;;;;;;0.30;0.30;;;;;;;;;;5085552;28;20283;-71
2022/12/12 03:26:49;;;;;;;0.30;0.30;;;;;;;;;;5084960;28;20200;-71
2022/12/12 03:29:17;;;;;;;0.30;0.30;;;;;;;;;;5085294;28;20259;-71
2022/12/12 03:31:46;;;;;;;0.30;0.30;;;;;;;;;;5084941;28;20241;-71
2022/12/12 03:34:15;;;;;;;0.80;0.80;;;;;;;;;;5085397;28;20471;-71
2022/12/12 03:36:46;;;;;;;0.30;0.30;;;;;;;;;;5085118;28;20401;-71
2022/12/12 03:39:13;;;;;;;0.40;0.40;;;;;;;;;;5085216;28;20270;-71
2022/12/12 03:41:41;;;;;;;0.40;0.40;;;;;;;;;;5085015;28;20498;-71
2022/12/12 03:44:11;;;;;;;0.40;0.40;;;;;;;;;;5085164;28;20534;-71
2022/12/12 03:46:40;;;;;;;0.40;0.40;;;;;;;;;;5084547;28;20203;-71
2022/12/12 03:49:10;;;;;;;0.40;0.40;;;;;;;;;;5084907;28;20298;-71
2022/12/12 03:51:38;;;;;;;2.80;2.70;;;;;;;;;;5084763;28;20235;-72
2022/12/12 03:54:08;;;;;;;0.63;0.63;;;;;;;;;;5084445;28;20215;-72
2022/12/12 03:56:37;;;;;;;0.30;0.30;;;;;;;;;;5084463;28;20234;-71
2022/12/12 03:59:07;;;;;;;0.40;0.40;;;;;;;;;;5084867;28;20203;-71
2022/12/12 04:01:37;;;;;;;0.40;0.40;;;;;;;;;;5084364;28;20204;-72
2022/12/12 04:04:06;;;;;;;0.40;0.40;;;;;;;;;;5084713;28;20498;-72
2022/12/12 04:06:34;;;;;;;0.40;0.40;;;;;;;;;;5084293;28;20238;-71
2022/12/12 04:14:54;;;;;;;0.40;0.40;;;;;;;;;;5084611;28;20391;-72
2022/12/12 04:17:24;;;;;;;0.40;0.40;;;;;;;;;;5084098;28;20219;-72
2022/12/12 04:25:27;;;;;;;0.40;0.40;;;;;;;;;;5083710;28;20232;-72
2022/12/12 04:28:00;;;;;;;0.40;0.40;;;;;;;;;;5083811;28;20234;-72
2022/12/12 04:30:28;;;;;;;0.40;0.40;;;;;;;;;;5084236;28;20442;-72
2022/12/12 04:32:58;;;;;;;0.30;0.30;;;;;;;;;;5083806;28;20211;-72
2022/12/12 04:35:28;;;;;;;0.37;0.37;;;;;;;;;;5084169;28;20231;-72
2022/12/12 04:37:55;;;;;;;0.30;0.30;;;;;;;;;;5084090;28;20323;-72
2022/12/12 04:40:23;;;;;;;0.30;0.30;;;;;;;;;;5084097;28;20260;-71
2022/12/12 04:42:53;;;;;;;0.40;0.40;;;;;;;;;;5083744;28;20270;-71
2022/12/12 04:45:22;;;;;;;0.40;0.40;;;;;;;;;;5083998;28;20440;-72
2022/12/12 04:47:50;;;;;;;0.37;0.37;;;;;;;;;;5083603;28;20250;-72
2022/12/12 04:50:17;;;;;;;2.20;2.10;;;;;;;;;;5084005;28;20230;-72
2022/12/12 04:52:44;;;;;;;0.30;0.30;;;;;;;;;;5083749;28;20493;-72
2022/12/12 04:55:13;;;;;;;0.40;0.40;;;;;;;;;;5083946;28;20505;-72
2022/12/12 04:57:41;;;;;;;0.40;0.40;;;;;;;;;;5083780;28;20222;-72
2022/12/12 05:00:08;;;;;;;0.37;0.37;;;;;;;;;;5083823;28;20241;-71
2022/12/12 05:02:39;;;;;;;0.30;0.30;;;;;;;;;;5083735;28;20203;-71
2022/12/12 05:05:08;;;;;;;0.30;0.30;;;;;;;;;;5083953;28;20191;-71
2022/12/12 05:07:36;;;;;;;0.40;0.40;;;;;;;;;;5083653;28;20242;-72
2022/12/12 05:10:05;;;;;;;0.40;0.40;;;;;;;;;;5083848;28;20428;-71
2022/12/12 05:12:38;;;;;;;0.60;0.60;;;;;;;;;;5083800;28;20240;-72
2022/12/12 05:15:05;;;;;;;0.30;0.30;;;;;;;;;;5083516;28;20199;-72
2022/12/12 05:17:35;;;;;;;0.40;0.40;;;;;;;;;;5083722;28;20234;-71
2022/12/12 05:20:02;;;;;;;0.30;0.30;;;;;;;;;;5083410;28;20295;-72
2022/12/12 05:22:29;;;;;;;0.40;0.40;;;;;;;;;;5083660;28;20230;-72
2022/12/12 05:24:55;;;;;;;0.30;0.30;;;;;;;;;;5083528;28;20428;-72
2022/12/12 05:27:22;;;;;;;0.30;0.30;;;;;;;;;;5083681;28;20454;-72
2022/12/12 05:29:48;;;;;;;0.60;0.60;;;;;;;;;;5083202;28;20254;-72
2022/12/12 05:32:14;;;;;;;0.30;0.30;;;;;;;;;;5083252;28;20241;-72
2022/12/12 05:34:41;;;;;;;0.40;0.40;;;;;;;;;;5083766;28;20273;-72
2022/12/12 05:37:09;;;;;;;0.33;0.33;;;;;;;;;;5085584;28;20223;-72
2022/12/12 05:39:35;;;;;;;0.30;0.30;;;;;;;;;;5087503;28;20203;-72
2022/12/12 05:42:01;;;;;;;0.33;0.33;;;;;;;;;;5087239;28;20270;-71
2022/12/12 05:44:28;;;;;;;0.30;0.30;;;;;;;;;;5086956;28;20241;-72
2022/12/12 05:46:54;;;;;;;0.30;0.30;;;;;;;;;;5086906;28;20203;-72
2022/12/12 05:49:21;;;;;;;0.30;0.30;;;;;;;;;;5087261;28;20400;-72
2022/12/12 05:51:47;;;;;;;0.40;0.40;;;;;;;;;;5087100;28;20241;-72
2022/12/12 05:54:15;;;;;;;0.30;0.30;;;;;;;;;;5086757;28;20253;-72
2022/12/12 05:56:41;;;;;;;0.30;0.30;;;;;;;;;;5087027;28;20210;-72
2022/12/12 05:59:07;;;;;;;0.40;0.40;;;;;;;;;;5087089;28;20269;-72
2022/12/12 06:01:34;;;;;;;0.40;0.40;;;;;;;;;;5086963;28;20292;-72
2022/12/12 06:04:00;;;;;;;1.60;1.60;;;;;;;;;;5086933;28;20241;-72
2022/12/12 06:06:27;;;;;;;0.30;0.30;;;;;;;;;;5086853;28;20242;-72
2022/12/12 06:08:53;;;;;;;0.40;0.40;;;;;;;;;;5086605;28;20251;-71
2022/12/12 06:11:21;;;;;;;0.40;0.40;;;;;;;;;;5086491;28;20275;-72
2022/12/12 06:13:47;;;;;;;0.43;0.43;;;;;;;;;;5086787;28;20206;-72
2022/12/12 06:16:15;;;;;;;0.40;0.40;;;;;;;;;;5086749;28;20210;-72
2022/12/12 06:18:41;;;;;;;1.80;1.80;;;;;;;;;;5086365;28;20206;-71
2022/12/12 06:21:08;;;;;;;0.40;0.40;;;;;;;;;;5086205;28;20230;-72
2022/12/12 06:23:35;;;;;;;0.30;0.30;;;;;;;;;;5086608;28;20544;-72
2022/12/12 06:26:02;;;;;;;0.90;0.90;;;;;;;;;;5086190;28;20285;-72
2022/12/12 06:28:30;;;;;;;0.40;0.40;;;;;;;;;;5086263;28;20247;-72
2022/12/12 06:30:56;;;;;;;0.30;0.30;;;;;;;;;;5086372;28;20202;-71
2022/12/12 06:33:23;;;;;;;0.40;0.40;;;;;;;;;;5086226;28;20278;-71
2022/12/12 06:35:57;;;;;;;0.40;0.40;;;;;;;;;;5086250;28;20375;-72
2022/12/12 06:38:23;;;;;;;0.30;0.30;;;;;;;;;;5086375;28;20266;-71
2022/12/12 06:40:49;;;;;;;0.30;0.30;;;;;;;;;;5085871;28;20219;-71
2022/12/12 06:43:16;;;;;;;0.40;0.40;;;;;;;;;;5086035;28;20210;-72
2022/12/12 06:45:44;;;;;;;0.40;0.40;;;;;;;;;;5086223;28;20206;-71
2022/12/12 06:48:10;;;;;;;0.40;0.40;;;;;;;;;;5085722;28;20250;-72
2022/12/12 06:50:38;;;;;;;0.47;0.47;;;;;;;;;;5085758;28;20203;-71
2022/12/12 06:53:05;;;;;;;0.40;0.40;;;;;;;;;;5085845;28;20218;-71
2022/12/12 06:55:31;;;;;;;0.40;0.40;;;;;;;;;;5085724;28;20230;-71
2022/12/12 06:57:57;;;;;;;0.40;0.40;;;;;;;;;;5085879;28;20203;-72
2022/12/12 07:00:24;;;;;;;0.40;0.40;;;;;;;;;;5085911;28;20280;-72
2022/12/12 07:02:52;;;;;;;0.40;0.40;;;;;;;;;;5085532;28;20210;-71
2022/12/12 07:05:18;;;;;;;0.40;0.40;;;;;;;;;;5085757;28;20462;-71
2022/12/12 07:07:44;;;;;;;0.40;0.40;;;;;;;;;;5085694;28;20401;-71
2022/12/12 07:10:11;;;;;;;0.40;0.40;;;;;;;;;;5085248;28;20223;-71
2022/12/12 07:12:37;;;;;;;0.40;0.40;;;;;;;;;;5085484;28;20239;-71
2022/12/12 07:15:04;;;;;;;0.40;0.40;;;;;;;;;;5085560;28;20275;-71
2022/12/12 07:17:30;;;;;;;0.30;0.30;;;;;;;;;;5085239;28;20247;-71
2022/12/12 07:19:58;;;;;;;0.40;0.40;;;;;;;;;;5085677;28;20203;-72
2022/12/12 07:22:24;;;;;;;0.37;0.37;;;;;;;;;;5085027;28;20261;-71
2022/12/12 07:24:51;;;;;;;2.63;2.53;;;;;;;;;;5085504;28;20214;-72
2022/12/12 07:27:17;;;;;;;0.33;0.33;;;;;;;;;;5085040;28;20203;-71
2022/12/12 07:29:44;;;;;;;0.40;0.40;;;;;;;;;;5085346;28;20254;-72
2022/12/12 07:32:10;;;;;;;0.30;0.30;;;;;;;;;;5085026;28;20242;-71
2022/12/12 07:34:37;;;;;;;0.30;0.30;;;;;;;;;;5085438;28;20211;-72
2022/12/12 07:37:04;;;;;;;0.30;0.30;;;;;;;;;;5085176;28;20401;-73
2022/12/12 07:39:31;;;;;;;0.37;0.37;;;;;;;;;;5085305;28;20270;-73
2022/12/12 07:41:57;;;;;;;0.40;0.40;;;;;;;;;;5084806;28;20246;-75
2022/12/12 07:44:23;;;;;;;0.40;0.40;;;;;;;;;;5085215;28;20242;-78
2022/12/12 07:46:50;;;;;;;0.40;0.40;;;;;;;;;;5084694;28;20234;-70
2022/12/12 07:49:17;;;;;;;0.30;0.30;;;;;;;;;;5085036;28;20250;-71
2022/12/12 07:51:43;;;;;;;0.30;0.30;;;;;;;;;;5084929;28;20383;-70
2022/12/12 07:54:11;;;;;;;0.37;0.37;;;;;;;;;;5084609;28;20306;-70
2022/12/12 07:56:37;;;;;;;0.30;0.30;;;;;;;;;;5084789;28;20279;-71
2022/12/12 07:59:04;;;;;;;0.30;0.30;;;;;;;;;;5084198;28;20235;-71
2022/12/12 08:01:30;;;;;;;0.40;0.40;;;;;;;;;;5084568;28;20225;-72
2022/12/12 08:03:56;;;;;;;0.40;0.40;;;;;;;;;;5084734;28;20270;-72
2022/12/12 08:06:23;;;;;;;0.30;0.30;;;;;;;;;;5084619;28;20278;-69
2022/12/12 08:08:49;;;;;;;0.30;0.30;;;;;;;;;;5084361;28;20250;-71
2022/12/12 08:11:18;;;;;;;0.30;0.30;;;;;;;;;;5084597;28;20266;-70
2022/12/12 08:13:44;;;;;;;0.30;0.30;;;;;;;;;;5084529;28;20241;-69
2022/12/12 08:16:13;;;;;;;0.30;0.30;;;;;;;;;;5084475;28;20429;-69
2022/12/12 08:18:40;;;;;;;0.40;0.40;;;;;;;;;;5084469;28;20563;-69
2022/12/12 08:21:06;;;;;;;0.40;0.40;;;;;;;;;;5083906;28;20522;-69
2022/12/12 08:23:33;;;;;;;0.37;0.37;;;;;;;;;;5084372;28;20481;-69
2022/12/12 08:26:02;;;;;;;0.30;0.30;;;;;;;;;;5084255;28;20407;-69
2022/12/12 08:28:30;;;;;;;0.30;0.30;;;;;;;;;;5084049;28;20204;-70
2022/12/12 08:30:56;;;;;;;0.30;0.30;;;;;;;;;;5083888;28;20203;-69
2022/12/12 08:33:23;;;;;;;0.30;0.30;;;;;;;;;;5084218;28;20429;-70
2022/12/12 08:35:49;;;;;;;0.30;0.30;;;;;;;;;;5083836;28;20203;-69
2022/12/12 08:38:15;;;;;;;0.30;0.30;;;;;;;;;;5083957;28;20211;-70
2022/12/12 08:40:42;;;;;;;0.30;0.30;;;;;;;;;;5083804;28;20207;-69
2022/12/12 08:43:08;;;;;;;0.30;0.30;;;;;;;;;;5084130;28;20394;-70
2022/12/12 08:45:36;;;;;;;0.30;0.30;;;;;;;;;;5084037;28;20242;-70
2022/12/12 08:48:03;;;;;;;0.30;0.30;;;;;;;;;;5084032;28;20230;-71
2022/12/12 08:50:29;;;;;;;0.40;0.40;;;;;;;;;;5083902;28;20224;-71
2022/12/12 08:52:56;;;;;;;0.30;0.30;;;;;;;;;;5083773;28;20234;-71
2022/12/12 08:55:22;;;;;;;0.30;0.30;;;;;;;;;;5084012;28;20198;-71
2022/12/12 08:57:48;;;;;;;0.37;0.37;;;;;;;;;;5083582;28;20243;-71
2022/12/12 09:00:15;;;;;;;0.30;0.30;;;;;;;;;;5083896;28;20546;-71
2022/12/12 09:02:43;;;;;;;0.30;0.30;;;;;;;;;;5084671;28;20289;-67
2022/12/12 09:05:10;;;;;;;0.30;0.30;;;;;;;;;;5083628;28;20235;-67
2022/12/12 09:07:36;;;;;;;0.40;0.40;;;;;;;;;;5083777;28;20230;-67
2022/12/12 09:10:03;;;;;;;0.40;0.40;;;;;;;;;;5084388;28;20227;-67
2022/12/12 09:12:30;;;;;;;0.30;0.30;;;;;;;;;;5088178;28;20273;-70
2022/12/12 09:14:56;;;;;;;0.30;0.30;;;;;;;;;;5087572;28;20250;-70
2022/12/12 09:17:22;;;;;;;0.30;0.30;;;;;;;;;;5087919;28;20391;-69
2022/12/12 09:19:50;;;;;;;0.30;0.30;;;;;;;;;;5087995;28;20199;-69
2022/12/12 09:22:17;;;;;;;0.40;0.40;;;;;;;;;;5087376;28;20237;-69
2022/12/12 09:24:43;;;;;;;0.30;0.30;;;;;;;;;;5087919;28;20231;-70
2022/12/12 09:27:10;;;;;;;0.30;0.30;;;;;;;;;;5087759;28;20203;-69
2022/12/12 09:29:36;;;;;;;0.30;0.30;;;;;;;;;;5087748;28;20231;-70
2022/12/12 09:32:05;;;;;;;0.30;0.30;;;;;;;;;;5087603;28;20231;-69
2022/12/12 09:34:31;;;;;;;0.30;0.30;;;;;;;;;;5087676;28;20203;-68
2022/12/12 09:36:59;;;;;;;0.30;0.30;;;;;;;;;;5087233;28;20234;-69
2022/12/12 09:39:26;;;;;;;0.30;0.30;;;;;;;;;;5087235;28;20207;-69
2022/12/12 09:41:52;;;;;;;0.30;0.30;;;;;;;;;;5086916;28;20207;-68
2022/12/12 09:44:21;;;;;;;0.30;0.30;;;;;;;;;;5087573;28;20227;-68
2022/12/12 09:46:49;;;;;;;0.30;0.30;;;;;;;;;;5087407;28;20226;-68
2022/12/12 09:49:17;;;;;;;0.30;0.30;;;;;;;;;;5087246;28;20557;-68
2022/12/12 09:51:45;;;;;;;0.30;0.30;;;;;;;;;;5086987;28;20203;-67
2022/12/12 09:54:15;;;;;;;0.60;0.60;;;;;;;;;;5086876;28;20218;-69
2022/12/12 09:56:45;;;;;;;0.30;0.30;;;;;;;;;;5087156;28;20203;-68
2022/12/12 09:59:13;;;;;;;0.30;0.30;;;;;;;;;;5087225;28;20275;-69
2022/12/12 10:01:45;;;;;;;0.30;0.30;;;;;;;;;;5086975;28;20275;-69
2022/12/12 10:04:15;;;;;;;0.30;0.30;;;;;;;;;;5087184;28;20275;-68
2022/12/12 10:06:44;;;;;;;0.30;0.30;;;;;;;;;;5086940;28;20225;-68
2022/12/12 10:09:21;;;;;;;0.33;0.33;;;;;;;;;;5086860;28;20211;-70
2022/12/12 10:11:53;;;;;;;0.30;0.30;;;;;;;;;;5086955;28;20258;-70
2022/12/12 10:14:24;;;;;;;0.30;0.30;;;;;;;;;;5086985;28;20210;-69
2022/12/12 10:16:51;;;;;;;0.30;0.30;;;;;;;;;;5086961;28;20198;-70
2022/12/12 10:19:20;;;;;;;0.30;0.30;;;;;;;;;;5086915;28;20199;-69
2022/12/12 10:21:47;;;;;;;2.93;2.83;;;;;;;;;;5085559;28;20251;-69
2022/12/12 10:24:24;;;;;;;0.30;0.30;;;;;;;;;;5086789;28;20524;-69
2022/12/12 10:26:52;;;;;;;0.30;0.30;;;;;;;;;;5086308;28;20192;-69
2022/12/12 10:29:19;;;;;;;0.37;0.37;;;;;;;;;;5086664;28;20295;-69
2022/12/12 10:31:50;;;;;;;0.30;0.30;;;;;;;;;;5086465;28;20238;-69
2022/12/12 10:34:27;;;;;;;0.30;0.30;;;;;;;;;;5086680;28;20244;-68
2022/12/12 10:36:59;;;;;;;0.30;0.30;;;;;;;;;;5086443;28;20225;-68
2022/12/12 10:39:28;;;;;;;0.30;0.30;;;;;;;;;;5086602;28;20387;-68
2022/12/12 10:41:58;;;;;;;0.30;0.30;;;;;;;;;;5086299;28;20270;-67
2022/12/12 10:44:32;;;;;;;0.30;0.30;;;;;;;;;;5086419;28;20462;-68
2022/12/12 10:47:00;;;;;;;0.30;0.30;;;;;;;;;;5085971;28;20235;-67
2022/12/12 10:49:27;;;;;;;0.30;0.30;;;;;;;;;;5086323;28;20230;-67
2022/12/12 10:51:54;;;;;;;0.73;0.73;;;;;;;;;;5086157;28;20409;-68
2022/12/12 10:54:21;;;;;;;0.30;0.30;;;;;;;;;;5085650;28;20546;-68
2022/12/12 10:57:08;;;;;;;0.30;0.30;;;;;;;;;;5085872;28;20451;-67
2022/12/12 10:59:42;;;;;;;0.33;0.33;;;;;;;;;;5085995;28;20277;-67
2022/12/12 11:02:22;;;;;;;0.20;0.20;;;;;;;;;;5085895;28;20250;-67
2022/12/12 11:04:48;;;;;;;0.30;0.30;;;;;;;;;;5085986;28;20210;-68
2022/12/12 11:07:19;;;;;;;0.20;0.20;;;;;;;;;;5085517;28;20226;-68
2022/12/12 11:09:46;;;;;;;0.20;0.20;;;;;;;;;;5086028;28;20236;-67
2022/12/12 11:12:14;;;;;;;1.83;1.77;;;;;;;;;;5085413;28;20272;-67
2022/12/12 11:14:44;;;;;;;0.20;0.20;;;;;;;;;;5085789;28;20280;-67
2022/12/12 11:17:19;;;;;;;0.20;0.20;;;;;;;;;;5085711;28;20216;-68
2022/12/12 11:19:45;;;;;;;0.97;0.97;;;;;;;;;;5085827;28;20267;-68
2022/12/12 11:22:13;;;;;;;0.20;0.20;;;;;;;;;;5085625;28;20245;-66
2022/12/12 11:24:41;;;;;;;0.20;0.20;;;;;;;;;;5085589;28;20205;-69
2022/12/12 11:27:15;;;;;;;0.20;0.20;;;;;;;;;;5085511;28;20212;-70
2022/12/12 11:29:45;;;;;;;0.20;0.20;;;;;;;;;;5085671;28;20264;-70
2022/12/12 11:32:12;;;;;;;3.37;3.23;;;;;;;;;;5084882;28;20211;-70
2022/12/12 11:34:40;;;;;;;0.30;0.30;;;;;;;;;;5084386;28;20335;-70
2022/12/12 11:37:06;;;;;;;0.33;0.33;;;;;;;;;;5085273;28;20232;-70
2022/12/12 11:39:37;;;;;;;0.23;0.23;;;;;;;;;;5085495;28;20437;-70
2022/12/12 11:42:04;;;;;;;0.20;0.20;;;;;;;;;;5085144;28;20254;-70
2022/12/12 11:44:35;;;;;;;0.20;0.20;;;;;;;;;;5084881;28;20527;-70
2022/12/12 11:47:19;;;;;;;0.20;0.20;;;;;;;;;;5084784;28;20207;-70
2022/12/12 11:49:46;;;;;;;0.20;0.20;;;;;;;;;;5085194;28;20295;-70
2022/12/12 11:52:17;;;;;;;0.43;0.43;;;;;;;;;;5084654;28;20231;-70
2022/12/12 11:54:44;;;;;;;0.20;0.20;;;;;;;;;;5084511;28;20216;-70
2022/12/12 11:57:12;;;;;;;0.30;0.30;;;;;;;;;;5084506;28;20221;-71
2022/12/12 11:59:46;;;;;;;0.30;0.30;;;;;;;;;;5084890;28;20237;-70
2022/12/12 12:02:26;;;;;;;1.17;1.07;;;;;;;;;;5084545;28;20226;-71
2022/12/12 12:04:59;;;;;;;0.60;0.60;;;;;;;;;;5084897;28;20277;-70
2022/12/12 12:07:46;;;;;;;0.20;0.20;;;;;;;;;;5084600;28;20528;-70
2022/12/12 12:10:15;;;;;;;0.57;0.57;;;;;;;;;;5084504;28;20243;-70
2022/12/12 12:12:47;;;;;;;0.30;0.30;;;;;;;;;;5084492;28;20205;-70
2022/12/12 12:15:22;;;;;;;1.63;1.63;;;;;;;;;;5084628;28;20362;-70
2022/12/12 12:17:56;;;;;;;0.23;0.23;;;;;;;;;;5084100;28;20192;-70
2022/12/12 12:20:29;;;;;;;0.30;0.30;;;;;;;;;;5084453;28;20410;-69
2022/12/12 12:23:02;;;;;;;0.40;0.40;;;;;;;;;;5084318;28;20443;-70
2022/12/12 12:25:34;;;;;;;0.20;0.20;;;;;;;;;;5084072;28;20192;-71
2022/12/12 12:28:08;;;;;;;0.20;0.20;;;;;;;;;;5084427;28;20212;-71
2022/12/12 12:30:39;;;;;;;1.83;1.83;;;;;;;;;;5084331;28;20384;-71
2022/12/12 12:33:17;;;;;;;0.30;0.30;;;;;;;;;;5083960;28;20206;-71
2022/12/12 12:35:52;;;;;;;0.23;0.23;;;;;;;;;;5084397;28;20220;-71
2022/12/12 12:38:22;;;;;;;0.30;0.30;;;;;;;;;;5084358;28;20236;-71
2022/12/12 12:40:54;;;;;;;0.30;0.30;;;;;;;;;;5084201;28;20256;-70
2022/12/12 12:43:27;;;;;;;0.30;0.30;;;;;;;;;;5084226;28;20261;-71
2022/12/12 12:45:58;;;;;;;0.30;0.30;;;;;;;;;;5083534;28;20226;-71
2022/12/12 12:48:28;;;;;;;0.30;0.30;;;;;;;;;;5084210;28;20204;-74
2022/12/12 12:50:59;;;;;;;0.30;0.30;;;;;;;;;;5083776;28;20253;-70
2022/12/12 12:53:28;;;;;;;0.30;0.30;;;;;;;;;;5083848;28;20225;-71
2022/12/12 12:55:58;;;;;;;0.30;0.30;;;;;;;;;;5083869;28;20211;-71
2022/12/12 12:58:27;;;;;;;0.30;0.30;;;;;;;;;;5084085;28;20385;-72
2022/12/12 13:00:58;;;;;;;0.20;0.20;;;;;;;;;;5084021;28;20554;-71
2022/12/12 13:03:27;;;;;;;0.30;0.30;;;;;;;;;;5083864;28;20266;-71
2022/12/12 13:05:57;;;;;;;0.30;0.30;;;;;;;;;;5083775;28;20212;-71
2022/12/12 13:35:53;;;;;;;0.40;0.40;;;;;;;;;;5083407;28;20217;-69
2022/12/12 13:38:22;;;;;;;0.30;0.30;;;;;;;;;;5083365;28;20278;-69
2022/12/12 13:40:55;;;;;;;0.30;0.30;;;;;;;;;;5083216;28;20239;-70
2022/12/12 13:43:27;;;;;;;0.30;0.30;;;;;;;;;;5083402;28;20276;-69
2022/12/12 13:45:54;;;;;;;0.30;0.30;;;;;;;;;;5083226;28;20204;-68
2022/12/12 13:48:50;;;;;;;0.30;0.30;;;;;;;;;;5083327;28;20213;-71
2022/12/12 13:51:35;;;;;;;0.30;0.30;;;;;;;;;;5021929;28;20447;-69
2022/12/12 13:54:20;;;;;;;0.20;0.20;;;;;;;;;;5075490;28;20461;-67
2022/12/12 13:56:47;;;;;;;0.30;0.30;;;;;;;;;;5083449;28;20233;-67
2022/12/12 13:59:28;;;;;;;0.30;0.30;;;;;;;;;;5087279;28;20235;-67
2022/12/12 14:01:55;;;;;;;0.30;0.30;;;;;;;;;;5086803;28;20219;-68
2022/12/12 14:04:26;;;;;;;0.30;0.30;;;;;;;;;;5087215;28;20208;-66
2022/12/12 14:07:00;;;;;;;0.30;0.30;;;;;;;;;;5086865;28;20234;-67
2022/12/12 14:09:29;;;;;;;0.30;0.30;;;;;;;;;;5087178;28;20387;-67
2022/12/12 14:12:02;;;;;;;0.30;0.30;;;;;;;;;;5086781;28;20258;-67
2022/12/12 14:14:29;;;;;;;0.30;0.30;;;;;;;;;;5086965;28;20203;-67
2022/12/12 14:16:56;;;;;;;0.30;0.30;;;;;;;;;;5086686;28;20464;-67
2022/12/12 14:19:28;;;;;;;0.80;0.80;;;;;;;;;;5086824;28;20205;-67
2022/12/12 14:21:55;;;;;;;0.30;0.30;;;;;;;;;;5086639;28;20473;-67
2022/12/12 14:24:41;;;;;;;0.30;0.30;;;;;;;;;;5086246;28;20276;-67
2022/12/12 14:27:10;;;;;;;0.30;0.30;;;;;;;;;;5086339;28;20270;-67
2022/12/12 14:29:39;;;;;;;0.30;0.30;;;;;;;;;;5086713;28;20492;-67
2022/12/12 14:32:16;;;;;;;0.30;0.30;;;;;;;;;;5086499;28;20553;-67
2022/12/12 14:34:46;;;;;;;0.30;0.30;;;;;;;;;;5086658;28;20236;-68
2022/12/12 14:37:33;;;;;;;0.30;0.30;;;;;;;;;;5086513;28;20203;-66
2022/12/12 14:40:01;;;;;;;0.30;0.30;;;;;;;;;;5086469;28;20226;-67
2022/12/12 14:42:33;;;;;;;0.30;0.30;;;;;;;;;;5086195;28;20203;-68
2022/12/12 14:44:59;;;;;;;0.30;0.30;;;;;;;;;;5086390;28;20201;-68
2022/12/12 14:47:26;;;;;;;0.30;0.30;;;;;;;;;;5086061;28;20235;-68
2022/12/12 14:50:07;;;;;;;0.30;0.30;;;;;;;;;;5085879;28;20241;-68
2022/12/12 14:52:34;;;;;;;0.30;0.30;;;;;;;;;;5086180;28;20250;-70
2022/12/12 14:55:02;;;;;;;0.30;0.30;;;;;;;;;;5085835;28;20397;-68
2022/12/12 14:57:29;;;;;;;0.30;0.30;;;;;;;;;;5086047;28;20205;-68
2022/12/12 14:59:57;;;;;;;0.30;0.30;;;;;;;;;;5086158;28;20274;-68
2022/12/12 15:02:26;;;;;;;0.30;0.30;;;;;;;;;;5085616;28;20226;-69
2022/12/12 15:04:54;;;;;;;0.37;0.37;;;;;;;;;;5086085;28;20246;-68
2022/12/12 15:07:25;;;;;;;0.30;0.30;;;;;;;;;;5085636;28;20211;-73
2022/12/12 15:09:51;;;;;;;0.30;0.30;;;;;;;;;;5085858;28;20204;-71
2022/12/12 15:12:18;;;;;;;0.30;0.30;;;;;;;;;;5085420;28;20299;-69
2022/12/12 15:14:52;;;;;;;0.40;0.40;;;;;;;;;;5085355;28;20237;-70
2022/12/12 15:17:22;;;;;;;0.30;0.30;;;;;;;;;;5085456;28;20200;-70
2022/12/12 15:19:50;;;;;;;0.30;0.30;;;;;;;;;;5085594;28;20216;-70
2022/12/12 15:22:22;;;;;;;0.30;0.30;;;;;;;;;;5085429;28;20530;-69
2022/12/12 15:24:48;;;;;;;0.30;0.30;;;;;;;;;;5085756;28;20234;-70
2022/12/12 15:27:17;;;;;;;0.30;0.30;;;;;;;;;;5085480;28;20270;-69
2022/12/12 15:29:43;;;;;;;0.43;0.43;;;;;;;;;;5085569;28;20235;-69
2022/12/12 15:32:16;;;;;;;0.30;0.30;;;;;;;;;;5085329;28;20325;-69
2022/12/12 15:34:46;;;;;;;0.30;0.30;;;;;;;;;;5085437;28;20203;-69
2022/12/12 15:37:19;;;;;;;0.30;0.30;;;;;;;;;;5084880;28;20264;-68
2022/12/12 15:39:46;;;;;;;0.40;0.40;;;;;;;;;;5085288;28;20203;-69
2022/12/12 15:42:14;;;;;;;0.30;0.30;;;;;;;;;;5084584;28;20431;-70
2022/12/12 15:44:41;;;;;;;0.30;0.30;;;;;;;;;;5085120;28;20230;-68
2022/12/12 15:47:11;;;;;;;1.30;1.27;;;;;;;;;;5084955;28;20274;-68